Flight Track Log - Related Links

Times and Time Zones

All times are in EDT time to prevent confusion due to time zone crossing. See the B-18725 flight status page for this flight to view local times or setup timezone preferences in your user account.

Time Position Orientation Groundspeed Altitude Reporting Facility
EDT Latitude Longitude Course Direction KTS MPH feet Rate Location/Type
Fri 12:03:27 PM 25.0950 121.2440 52° Northeast 166 191 800  Level FlightAware ADS-B
Fri 12:04:02 PM 25.1130 121.2670 49° Northeast 192 221 1,500 1,300 Climbing FlightAware ADS-B
Fri 12:04:27 PM 25.1300 121.2880 48° Northeast 214 246 2,100 1,527 Climbing FlightAware ADS-B
Fri 12:04:57 PM 25.1540 121.3080 37° Northeast 239 275 2,900 1,543 Climbing FlightAware ADS-B
Fri 12:05:37 PM 25.1970 121.2870 336° Northwest 283 326 3,900 1,543 Climbing FlightAware ADS-B
Fri 12:06:07 PM 25.2180 121.2480 301° West 305 351 4,700 2,291 Climbing FlightAware ADS-B
Fri 12:06:32 PM 25.2310 121.2120 292° West 305 351 6,000 2,850 Climbing FlightAware ADS-B
Fri 12:06:47 PM 25.2310 121.1910 270° West 304 350 6,600 3,000 Climbing FlightAware ADS-B
Fri 12:07:02 PM 25.2240 121.1690 251° West 300 345 7,500 3,150 Climbing FlightAware ADS-B
Fri 12:07:27 PM 25.2030 121.1380 233° Southwest 295 339 8,700 2,657 Climbing FlightAware ADS-B
Fri 12:08:12 PM 25.1770 121.0780 244° Southwest 298 343 10,600 1,976 Climbing FlightAware ADS-B
Fri 12:08:52 PM 25.1530 121.0190 246° West 329 379 11,500 1,350 Climbing FlightAware ADS-B
Fri 12:09:32 PM 25.1280 120.9550 247° West 363 418 12,400 1,694 Climbing FlightAware ADS-B
Fri 12:10:17 PM 25.0850 120.8800 238° Southwest 389 448 13,900 2,400 Climbing FlightAware ADS-B
Fri 12:10:57 PM 25.0320 120.8240 224° Southwest 396 456 15,800 2,753 Climbing FlightAware ADS-B
Fri 12:11:42 PM 24.9720 120.7620 223° Southwest 406 467 17,800 2,612 Climbing FlightAware ADS-B
Fri 12:12:22 PM 24.9170 120.7040 224° Southwest 414 476 19,500 2,894 Climbing FlightAware ADS-B
Fri 12:13:07 PM 24.8540 120.6370 224° Southwest 405 466 21,900 2,400 Climbing FlightAware ADS-B
Fri 12:13:47 PM 24.7980 120.5790 223° Southwest 425 489 22,900 1,575 Climbing FlightAware ADS-B
Fri 12:14:27 PM 24.7390 120.5190 223° Southwest 441 507 24,000 1,694 Climbing FlightAware ADS-B
Fri 12:15:12 PM 24.6650 120.4590 216° Southwest 454 522 25,300 1,765 Climbing FlightAware ADS-B
Fri 12:15:52 PM 24.5980 120.4100 214° Southwest 463 533 26,500 1,800 Climbing FlightAware ADS-B
Fri 12:16:32 PM 24.5150 120.3780 199° South 480 552 27,700 2,080 Climbing FlightAware ADS-B
Fri 12:17:07 PM 24.4440 120.3680 187° South 473 544 29,100 2,118 Climbing FlightAware ADS-B
Fri 12:17:57 PM 24.3410 120.3540 187° South 468 539 30,700 1,958 Climbing FlightAware ADS-B
Fri 12:18:42 PM 24.2480 120.3420 187° South 460 529 32,200 1,835 Climbing FlightAware ADS-B
Fri 12:19:22 PM 24.1620 120.3300 187° South 455 524 33,300 1,575 Climbing FlightAware ADS-B
Fri 12:20:02 PM 24.0770 120.3170 188° South 452 520 34,300 1,350 Climbing FlightAware ADS-B
Fri 12:20:42 PM 23.9910 120.3050 187° South 452 520 35,100 1,200 Climbing FlightAware ADS-B
Fri 12:21:22 PM 23.9090 120.2940 187° South 447 514 35,900 600 Climbing FlightAware ADS-B
Fri 12:22:12 PM 23.8080 120.2800 187° South 456 525 36,000 67 Climbing FlightAware ADS-B
Fri 12:22:52 PM 23.7260 120.2680 188° South 457 526 36,000  Level FlightAware ADS-B
Fri 12:23:37 PM 23.6270 120.2550 187° South 459 528 36,000  Level FlightAware ADS-B
Fri 12:24:17 PM 23.5470 120.2440 187° South 461 531 36,000  Level FlightAware ADS-B
Fri 12:24:52 PM 23.4670 120.2330 187° South 464 534 36,000  Level FlightAware ADS-B
Fri 12:25:42 PM 23.3570 120.2170 188° South 465 535 36,000  Level FlightAware ADS-B
Fri 12:26:22 PM 23.2750 120.2060 187° South 466 536 36,000  Level FlightAware ADS-B
Fri 12:27:07 PM 23.1810 120.1930 187° South 466 536 36,000  Level FlightAware ADS-B
Fri 12:27:47 PM 23.0940 120.1810 187° South 466 536 36,000  Level FlightAware ADS-B
Fri 12:28:27 PM 23.0080 120.1700 187° South 466 536 36,000  Level FlightAware ADS-B
Fri 12:29:12 PM 22.9180 120.1570 188° South 466 536 36,000  Level FlightAware ADS-B
Fri 12:29:52 PM 22.8200 120.1440 187° South 465 535 36,000  Level FlightAware ADS-B
Fri 12:30:47 PM 22.7110 120.1290 187° South 465 535 36,000  Level FlightAware ADS-B
Fri 12:31:27 PM 22.6270 120.1170 188° South 465 535 36,000  Level FlightAware ADS-B
Fri 12:32:12 PM 22.5210 120.1030 187° South 466 536 36,000  Level FlightAware ADS-B
Fri 12:32:47 PM 22.4450 120.0920 188° South 467 537 36,000  Level FlightAware ADS-B
Fri 12:33:47 PM 22.3260 120.0760 187° South 468 539 36,000  Level FlightAware ADS-B
Fri 12:34:32 PM 22.2250 120.0620 187° South 469 540 36,000  Level FlightAware ADS-B
Fri 12:35:12 PM 22.1310 120.0500 187° South 466 536 36,000  Level FlightAware ADS-B
Fri 12:35:57 PM 22.0410 120.0380 187° South 465 535 36,000  Level FlightAware ADS-B
Fri 12:36:37 PM 21.9510 120.0240 188° South 463 533 36,000  Level FlightAware ADS-B
Fri 12:37:32 PM 21.8400 120.0070 188° South 463 533 36,000  Level FlightAware ADS-B
Fri 12:38:17 PM 21.7410 119.9920 188° South 462 532 36,000  Level FlightAware ADS-B
Fri 12:39:12 PM 21.6200 119.9740 188° South 463 533 36,000  Level FlightAware ADS-B
Fri 12:39:52 PM 21.5430 119.9620 188° South 464 534 36,000  Level FlightAware ADS-B
Fri 12:40:37 PM 21.4460 119.9470 188° South 465 535 36,000  Level FlightAware ADS-B
Fri 12:41:17 PM 21.3560 119.9340 188° South 465 535 36,000  Level FlightAware ADS-B
Fri 12:41:57 PM 21.2700 119.9210 188° South 465 535 36,000  Level FlightAware ADS-B
Fri 12:42:32 PM 21.1950 119.9100 188° South 465 535 36,000  Level FlightAware ADS-B
Fri 12:43:22 PM 21.0890 119.8930 189° South 465 535 36,000  Level FlightAware ADS-B
Fri 12:44:02 PM 21.0050 119.8710 194° South 455 524 36,000  Level FlightAware ADS-B
Fri 12:44:47 PM 20.9370 119.8120 219° Southwest 449 517 36,000  Level FlightAware ADS-B
Fri 12:45:27 PM 20.8750 119.7450 225° Southwest 450 518 36,000  Level FlightAware ADS-B
Fri 12:46:02 PM 20.8240 119.6900 225° Southwest 450 518 36,000  Level FlightAware ADS-B
Fri 12:46:52 PM 20.7510 119.6120 225° Southwest 451 519 36,000  Level FlightAware ADS-B
Fri 12:47:47 PM 20.6720 119.5260 226° Southwest 452 520 36,000  Level FlightAware ADS-B
Fri 12:48:27 PM 20.6100 119.4600 225° Southwest 451 519 36,000  Level FlightAware ADS-B
Fri 12:49:07 PM 20.5530 119.3990 225° Southwest 451 519 36,000  Level FlightAware ADS-B
Fri 12:49:47 PM 20.4920 119.3340 225° Southwest 452 520 36,000  Level FlightAware ADS-B
Fri 12:50:37 PM 20.4230 119.2600 225° Southwest 451 519 36,000  Level FlightAware ADS-B
Fri 12:51:17 PM 20.3580 119.1900 225° Southwest 451 519 36,000  Level FlightAware ADS-B
Fri 12:51:57 PM 20.2980 119.1270 225° Southwest 449 517 36,000  Level FlightAware ADS-B
Fri 12:52:37 PM 20.2430 119.0680 225° Southwest 449 517 36,000  Level FlightAware ADS-B
Fri 12:53:27 PM 20.1720 118.9930 225° Southwest 449 517 36,000  Level FlightAware ADS-B
Fri 12:54:07 PM 20.1100 118.9270 225° Southwest 449 517 36,000  Level FlightAware ADS-B
Fri 12:54:42 PM 20.0570 118.8700 225° Southwest 450 518 36,000  Level FlightAware ADS-B
Fri 12:55:27 PM 19.9990 118.8090 225° Southwest 450 518 36,000  Level FlightAware ADS-B
Fri 12:56:07 PM 19.9490 118.7550 225° Southwest 450 518 36,000  Level FlightAware ADS-B
Fri 12:56:57 PM 19.8870 118.6890 225° Southwest 450 518 36,000  Level FlightAware ADS-B
Fri 12:57:37 PM 19.8370 118.6360 225° Southwest 450 518 36,000  Level FlightAware ADS-B
Fri 12:58:17 PM 19.7870 118.5820 225° Southwest 450 518 36,000  Level FlightAware ADS-B
Fri 12:58:57 PM 19.7360 118.5290 224° Southwest 450 518 36,000  Level FlightAware ADS-B
Fri 12:59:47 PM 19.6740 118.4630 225° Southwest 450 518 36,000  Level FlightAware ADS-B
Fri 01:00:27 PM 19.6240 118.4100 225° Southwest 450 518 36,000  Level FlightAware ADS-B
Fri 01:01:07 PM 19.5740 118.3570 225° Southwest 450 518 36,000  Level FlightAware ADS-B
Fri 01:01:47 PM 19.5240 118.3030 226° Southwest 450 518 36,000  Level FlightAware ADS-B
Fri 01:02:27 PM 19.4740 118.2500 225° Southwest 450 518 36,000  Level FlightAware ADS-B
Fri 01:03:17 PM 19.4110 118.1840 225° Southwest 450 518 36,000  Level FlightAware ADS-B
Fri 01:03:57 PM 19.3610 118.1310 225° Southwest 450 518 36,000  Level FlightAware ADS-B
Fri 01:04:37 PM 19.3110 118.0780 225° Southwest 450 518 36,000  Level FlightAware ADS-B
Fri 01:07:00 PM 19.0832 117.8814 219° Southwest  Level Estimated
Fri 01:08:00 PM 18.9876 117.7991 219° Southwest  Level Estimated
Fri 01:09:00 PM 18.8919 117.7169 219° Southwest  Level Estimated
Fri 01:10:00 PM 18.7962 117.6348 219° Southwest  Level Estimated
Fri 01:11:00 PM 18.7004 117.5528 219° Southwest  Level Estimated
Fri 01:12:00 PM 18.6047 117.4708 219° Southwest  Level Estimated
Fri 01:13:00 PM 18.5088 117.3890 219° Southwest  Level Estimated
Fri 01:14:00 PM 18.4130 117.3073 219° Southwest  Level Estimated
Fri 01:15:00 PM 18.3171 117.2256 219° Southwest  Level Estimated
Fri 01:16:00 PM 18.2212 117.1440 219° Southwest  Level Estimated
Fri 01:17:00 PM 18.1252 117.0626 219° Southwest  Level Estimated
Fri 01:18:00 PM 18.0292 116.9812 219° Southwest  Level Estimated
Fri 01:19:00 PM 17.9332 116.8999 219° Southwest  Level Estimated
Fri 01:20:00 PM 17.8372 116.8186 219° Southwest  Level Estimated
Fri 01:21:00 PM 17.7411 116.7375 219° Southwest  Level Estimated
Fri 01:22:00 PM 17.6449 116.6565 219° Southwest  Level Estimated
Fri 01:23:00 PM 17.5488 116.5755 219° Southwest  Level Estimated
Fri 01:24:00 PM 17.4526 116.4947 219° Southwest  Level Estimated
Fri 01:25:00 PM 17.3564 116.4139 219° Southwest  Level Estimated
Fri 01:26:00 PM 17.2601 116.3332 219° Southwest  Level Estimated
Fri 01:27:00 PM 17.1638 116.2526 219° Southwest  Level Estimated
Fri 01:28:00 PM 17.0675 116.1721 219° Southwest  Level Estimated
Fri 01:29:00 PM 16.9711 116.0916 219° Southwest  Level Estimated
Fri 01:30:00 PM 16.8748 116.0113 219° Southwest  Level Estimated
Fri 01:31:00 PM 16.7784 115.9310 219° Southwest  Level Estimated
Fri 01:32:00 PM 16.6819 115.8508 219° Southwest  Level Estimated
Fri 01:33:00 PM 16.5854 115.7707 219° Southwest  Level Estimated
Fri 01:34:00 PM 16.4889 115.6906 218° Southwest  Level Estimated
Fri 01:35:00 PM 16.3924 115.6106 218° Southwest  Level Estimated
Fri 01:36:00 PM 16.2958 115.5308 218° Southwest  Level Estimated
Fri 01:37:00 PM 16.1992 115.4510 218° Southwest  Level Estimated
Fri 01:38:00 PM 16.1026 115.3712 218° Southwest  Level Estimated
Fri 01:39:00 PM 16.0059 115.2916 218° Southwest  Level Estimated
Fri 01:40:00 PM 15.9092 115.2120 218° Southwest  Level Estimated
Fri 01:41:00 PM 15.8125 115.1326 218° Southwest  Level Estimated
Fri 01:42:00 PM 15.7158 115.0531 218° Southwest  Level Estimated
Fri 01:43:00 PM 15.6190 114.9738 218° Southwest  Level Estimated
Fri 01:44:00 PM 15.5222 114.8945 218° Southwest  Level Estimated
Fri 01:45:00 PM 15.4254 114.8154 218° Southwest  Level Estimated
Fri 01:46:00 PM 15.3285 114.7362 218° Southwest  Level Estimated
Fri 01:47:00 PM 15.2317 114.6572 218° Southwest  Level Estimated
Fri 01:48:00 PM 15.1347 114.5782 218° Southwest  Level Estimated
Fri 01:49:00 PM 15.0378 114.4993 218° Southwest  Level Estimated
Fri 01:50:00 PM 14.9408 114.4205 218° Southwest  Level Estimated
Fri 01:51:00 PM 14.8438 114.3417 218° Southwest  Level Estimated
Fri 01:52:00 PM 14.7468 114.2631 218° Southwest  Level Estimated
Fri 01:53:00 PM 14.6498 114.1844 218° Southwest  Level Estimated
Fri 01:54:00 PM 14.5527 114.1059 218° Southwest  Level Estimated
Fri 01:55:00 PM 14.4556 114.0274 218° Southwest  Level Estimated
Fri 01:56:00 PM 14.3585 113.9490 218° Southwest  Level Estimated
Fri 01:57:00 PM 14.2613 113.8707 218° Southwest  Level Estimated
Fri 01:58:00 PM 14.1641 113.7924 218° Southwest  Level Estimated
Fri 01:59:00 PM 14.0669 113.7142 218° Southwest  Level Estimated
Fri 02:00:00 PM 13.9697 113.6361 218° Southwest  Level Estimated
Fri 02:01:00 PM 13.8725 113.5580 218° Southwest  Level Estimated
Fri 02:02:00 PM 13.7752 113.4800 218° Southwest  Level Estimated
Fri 02:03:00 PM 13.6779 113.4020 218° Southwest  Level Estimated
Fri 02:04:00 PM 13.5806 113.3242 218° Southwest  Level Estimated
Fri 02:05:00 PM 13.4832 113.2464 218° Southwest  Level Estimated
Fri 02:06:00 PM 13.3858 113.1686 218° Southwest  Level Estimated
Fri 02:07:00 PM 13.2884 113.0909 218° Southwest  Level Estimated
Fri 02:08:00 PM 13.1910 113.0133 218° Southwest  Level Estimated
Fri 02:09:00 PM 13.0936 112.9357 218° Southwest  Level Estimated
Fri 02:10:00 PM 12.9961 112.8582 218° Southwest  Level Estimated
Fri 02:11:00 PM 12.8986 112.7808 218° Southwest  Level Estimated
Fri 02:12:00 PM 12.8011 112.7034 218° Southwest  Level Estimated
Fri 02:13:00 PM 12.7036 112.6261 218° Southwest  Level Estimated
Fri 02:14:00 PM 12.6060 112.5488 218° Southwest  Level Estimated
Fri 02:15:00 PM 12.5084 112.4716 218° Southwest  Level Estimated
Fri 02:16:00 PM 12.4108 112.3945 218° Southwest  Level Estimated
Fri 02:17:00 PM 12.3132 112.3174 218° Southwest  Level Estimated
Fri 02:18:00 PM 12.2156 112.2404 218° Southwest  Level Estimated
Fri 02:19:00 PM 12.1179 112.1634 218° Southwest  Level Estimated
Fri 02:20:00 PM 12.0202 112.0865 218° Southwest  Level Estimated
Fri 02:21:00 PM 11.9225 112.0096 218° Southwest  Level Estimated
Fri 02:22:00 PM 11.8247 111.9328 218° Southwest  Level Estimated
Fri 02:23:00 PM 11.7270 111.8561 218° Southwest  Level Estimated
Fri 02:24:00 PM 11.6292 111.7794 218° Southwest  Level Estimated
Fri 02:25:00 PM 11.5314 111.7027 218° Southwest  Level Estimated
Fri 02:26:00 PM 11.4336 111.6262 218° Southwest  Level Estimated
Fri 02:27:00 PM 11.3358 111.5496 217° Southwest  Level Estimated
Fri 02:28:00 PM 11.2380 111.4731 217° Southwest  Level Estimated
Fri 02:29:00 PM 11.1401 111.3967 217° Southwest  Level Estimated
Fri 02:30:00 PM 11.0422 111.3203 217° Southwest  Level Estimated
Fri 02:31:00 PM 10.9443 111.2440 217° Southwest  Level Estimated
Fri 02:32:00 PM 10.8463 111.1677 217° Southwest  Level Estimated
Fri 02:33:00 PM 10.7484 111.0915 217° Southwest  Level Estimated
Fri 02:34:00 PM 10.6504 111.0153 217° Southwest  Level Estimated
Fri 02:35:00 PM 10.5525 110.9392 217° Southwest  Level Estimated
Fri 02:36:00 PM 10.4544 110.8631 217° Southwest  Level Estimated
Fri 02:37:00 PM 10.3564 110.7871 217° Southwest  Level Estimated
Fri 02:38:00 PM 10.2584 110.7111 217° Southwest  Level Estimated
Fri 02:38:32 PM 9.5130 109.8380 217° Southwest 487 560 36,000  Level FlightAware ADS-B
Fri 02:39:00 PM 10.1603 110.6351 217° Southwest  Level Estimated
Fri 02:39:32 PM 9.4090 109.7660 214° Southwest 488 562 36,000  Level FlightAware ADS-B
Fri 02:40:12 PM 9.3450 109.7220 214° Southwest 488 562 36,000  Level FlightAware ADS-B
Fri 02:40:52 PM 9.2820 109.6790 214° Southwest 488 562 36,000  Level FlightAware ADS-B
Fri 02:41:32 PM 9.2180 109.6350 214° Southwest 488 562 36,000  Level FlightAware ADS-B
Fri 02:42:12 PM 9.1540 109.5920 214° Southwest 488 562 36,000  Level FlightAware ADS-B
Fri 02:42:52 PM 9.0910 109.5480 215° Southwest 488 562 36,000  Level FlightAware ADS-B
Fri 02:43:42 PM 9.0110 109.4940 214° Southwest 488 562 36,000  Level FlightAware ADS-B
Fri 02:44:22 PM 8.8610 109.3800 217° Southwest 489 563 36,000  Level FlightAware ADS-B
Fri 02:44:57 PM 8.7980 109.3360 215° Southwest 488 562 36,000  Level FlightAware ADS-B
Fri 02:45:42 PM 8.7250 109.2860 214° Southwest 488 562 36,000  Level FlightAware ADS-B
Fri 02:46:32 PM 8.6460 109.2320 214° Southwest 488 562 36,000  Level FlightAware ADS-B
Fri 02:47:12 PM 8.5480 109.1630 215° Southwest 490 564 36,000  Level FlightAware ADS-B
Fri 02:47:52 PM 8.4840 109.1200 214° Southwest 490 564 36,000  Level FlightAware ADS-B
Fri 02:48:32 PM 8.4210 109.0760 215° Southwest 490 564 36,000  Level FlightAware ADS-B
Fri 02:49:12 PM 8.3570 109.0320 214° Southwest 490 564 36,000  Level FlightAware ADS-B
Fri 02:49:52 PM 8.2930 108.9890 214° Southwest 490 564 36,000  Level FlightAware ADS-B
Fri 02:50:42 PM 8.2130 108.9340 214° Southwest 490 564 36,000  Level FlightAware ADS-B
Fri 02:51:22 PM 8.1490 108.8910 214° Southwest 490 564 36,000  Level FlightAware ADS-B
Fri 02:52:02 PM 8.0850 108.8470 214° Southwest 490 564 36,000  Level FlightAware ADS-B
Fri 02:52:42 PM 8.0210 108.8040 214° Southwest 490 564 36,000  Level FlightAware ADS-B
Fri 02:53:22 PM 7.9570 108.7600 214° Southwest 490 564 36,000  Level FlightAware ADS-B
Fri 02:54:12 PM 7.8770 108.7060 214° Southwest 490 564 36,000  Level FlightAware ADS-B
Fri 02:54:52 PM 7.8140 108.6620 215° Southwest 490 564 36,000  Level FlightAware ADS-B
Fri 02:55:32 PM 7.7500 108.6190 214° Southwest 490 564 36,000  Level FlightAware ADS-B
Fri 02:56:12 PM 7.6860 108.5750 214° Southwest 490 564 36,000  Level FlightAware ADS-B
Fri 02:58:00 PM 7.5066 108.4433 216° Southwest  Level Estimated
Fri 02:59:00 PM 7.4069 108.3701 216° Southwest  Level Estimated
Fri 03:00:00 PM 7.3072 108.2970 216° Southwest  Level Estimated
Fri 03:01:00 PM 7.2074 108.2239 216° Southwest  Level Estimated
Fri 03:02:00 PM 7.1077 108.1509 216° Southwest  Level Estimated
Fri 03:03:00 PM 7.0079 108.0779 216° Southwest  Level Estimated
Fri 03:04:00 PM 6.9082 108.0049 216° Southwest  Level Estimated
Fri 03:05:00 PM 6.8084 107.9319 216° Southwest  Level Estimated
Fri 03:06:00 PM 6.7086 107.8590 216° Southwest  Level Estimated
Fri 03:07:00 PM 6.6088 107.7861 216° Southwest  Level Estimated
Fri 03:08:00 PM 6.5090 107.7132 216° Southwest  Level Estimated
Fri 03:09:00 PM 6.4092 107.6404 216° Southwest  Level Estimated
Fri 03:10:00 PM 6.3094 107.5676 216° Southwest  Level Estimated
Fri 03:11:00 PM 6.2096 107.4948 216° Southwest  Level Estimated
Fri 03:12:00 PM 6.1097 107.4221 216° Southwest  Level Estimated
Fri 03:13:00 PM 6.0099 107.3494 216° Southwest  Level Estimated
Fri 03:14:00 PM 5.9100 107.2767 216° Southwest  Level Estimated
Fri 03:15:00 PM 5.8102 107.2040 216° Southwest  Level Estimated
Fri 03:16:00 PM 5.7103 107.1313 216° Southwest  Level Estimated
Fri 03:17:00 PM 5.6104 107.0587 216° Southwest  Level Estimated
Fri 03:18:00 PM 5.5105 106.9861 216° Southwest  Level Estimated
Fri 03:19:00 PM 5.4106 106.9136 216° Southwest  Level Estimated
Fri 03:20:00 PM 5.3107 106.8410 216° Southwest  Level Estimated
Fri 03:21:00 PM 5.2107 106.7685 216° Southwest  Level Estimated
Fri 03:22:00 PM 5.1108 106.6960 216° Southwest  Level Estimated
Fri 03:23:00 PM 5.0109 106.6235 216° Southwest  Level Estimated
Fri 03:24:00 PM 4.9109 106.5511 216° Southwest  Level Estimated
Fri 03:25:00 PM 4.8109 106.4786 216° Southwest  Level Estimated
Fri 03:26:00 PM 4.7110 106.4062 216° Southwest  Level Estimated
Fri 03:26:52 PM 4.1010 105.9820 216° Southwest 498 573 36,000  Level FlightAware ADS-B
Fri 03:27:00 PM 4.6110 106.3338 216° Southwest  Level Estimated
Fri 03:27:37 PM 4.0400 105.9070 231° Southwest 497 572 36,000  Level FlightAware ADS-B
Fri 03:28:17 PM 3.9780 105.8310 231° Southwest 499 574 36,000  Level FlightAware ADS-B
Fri 03:28:52 PM 3.9310 105.7730 231° Southwest 499 574 36,000  Level FlightAware ADS-B
Fri 03:29:42 PM 3.8530 105.6780 231° Southwest 499 574 36,000  Level FlightAware ADS-B
Fri 03:30:37 PM 3.7740 105.5800 231° Southwest 499 574 36,000  Level FlightAware ADS-B
Fri 03:31:17 PM 3.7160 105.5090 231° Southwest 499 574 36,000  Level FlightAware ADS-B
Fri 03:32:02 PM 3.6500 105.4280 231° Southwest 500 575 36,000  Level FlightAware ADS-B
Fri 03:32:42 PM 3.5910 105.3550 231° Southwest 499 574 36,000  Level FlightAware ADS-B
Fri 03:33:27 PM 3.5270 105.2750 231° Southwest 498 573 36,000  Level FlightAware ADS-B
Fri 03:34:07 PM 3.4690 105.2030 231° Southwest 499 574 36,000  Level FlightAware ADS-B
Fri 03:34:47 PM 3.4100 105.1310 231° Southwest 499 574 36,000  Level FlightAware ADS-B
Fri 03:35:32 PM 3.3430 105.0480 231° Southwest 500 575 36,000  Level FlightAware ADS-B
Fri 03:36:12 PM 3.2850 104.9770 231° Southwest 501 577 36,000  Level FlightAware ADS-B
Fri 03:36:57 PM 3.2190 104.8960 231° Southwest 500 575 36,000  Level FlightAware ADS-B
Fri 03:37:37 PM 3.1620 104.8260 231° Southwest 499 574 36,000 -150 Level FlightAware ADS-B
Fri 03:38:17 PM 3.1040 104.7540 231° Southwest 495 570 35,800 -1,694 Descending FlightAware ADS-B
Fri 03:39:02 PM 3.0430 104.6670 235° Southwest 497 572 33,600 -2,753 Descending FlightAware ADS-B
Fri 03:39:42 PM 3.0180 104.5830 253° West 493 567 31,900 -2,400 Descending FlightAware ADS-B
Fri 03:40:27 PM 2.9970 104.4830 258° West 483 556 30,200 -1,765 Descending FlightAware ADS-B
Fri 03:41:07 PM 2.9800 104.3980 259° West 454 522 29,400 -1,200 Descending FlightAware ADS-B
Fri 03:41:52 PM 2.9600 104.3080 257° West 424 488 28,500 -1,341 Descending FlightAware ADS-B
Fri 03:42:32 PM 2.9440 104.2310 258° West 412 474 27,500 -1,575 Descending FlightAware ADS-B
Fri 03:43:12 PM 2.9260 104.1590 256° West 400 460 26,400 -1,636 Descending FlightAware ADS-B
Fri 03:43:27 PM 2.9120 104.1380 236° Southwest 397 457 26,000 -840 Descending FlightAware ADS-B
Fri 03:44:02 PM 2.8680 104.0990 222° Southwest 396 456 25,700 -1,964 Descending FlightAware ADS-B
Fri 03:44:22 PM 2.8190 104.1040 174° South 387 445 24,200 -2,585 Descending FlightAware ADS-B
Fri 03:45:07 PM 2.7420 104.1050 179° South 380 437 22,900 -1,976 Descending FlightAware ADS-B
Fri 03:45:47 PM 2.6720 104.1060 179° South 369 425 21,400 -2,188 Descending FlightAware ADS-B
Fri 03:46:32 PM 2.5940 104.1060 180° South 355 409 19,800 -1,765 Descending FlightAware ADS-B
Fri 03:47:12 PM 2.5310 104.1060 180° South 338 389 18,900 -1,600 Descending FlightAware ADS-B
Fri 03:47:47 PM 2.4780 104.1050 181° South 329 379 17,800 -1,835 Descending FlightAware ADS-B
Fri 03:48:37 PM 2.4030 104.1050 180° South 316 364 16,300 -1,933 Descending FlightAware ADS-B
Fri 03:49:17 PM 2.3450 104.1060 179° South 311 358 14,900 -2,025 Descending FlightAware ADS-B
Fri 03:49:57 PM 2.2870 104.1070 179° South 302 348 13,600 -1,976 Descending FlightAware ADS-B
Fri 03:50:42 PM 2.2230 104.1080 179° South 304 350 12,100 -1,694 Descending FlightAware ADS-B
Fri 03:51:22 PM 2.1670 104.1080 180° South 301 346 11,200 -1,271 Descending FlightAware ADS-B
Fri 03:52:07 PM 2.1070 104.1080 180° South 296 341 10,300 -1,286 Descending FlightAware ADS-B
Fri 03:52:32 PM 2.0700 104.1090 178° South 293 337 9,700 -1,309 Descending FlightAware ADS-B
Fri 03:53:02 PM 2.0300 104.1070 183° South 289 333 9,100 -1,200 Descending FlightAware ADS-B
Fri 03:53:27 PM 1.9980 104.1050 184° South 286 329 8,600 -1,050 Descending FlightAware ADS-B
Fri 03:53:42 PM 1.9760 104.1040 183° South 278 320 8,400 -1,067 Descending FlightAware ADS-B
Fri 03:54:12 PM 1.9390 104.1020 183° South 273 314 7,800 -1,091 Descending FlightAware ADS-B
Fri 03:54:37 PM 1.9080 104.1010 182° South 268 308 7,400 -982 Descending FlightAware ADS-B
Fri 03:55:07 PM 1.8710 104.0990 183° South 263 303 6,900 -1,100 Descending FlightAware ADS-B
Fri 03:55:37 PM 1.8340 104.0970 183° South 259 298 6,300 -1,309 Descending FlightAware ADS-B
Fri 03:56:02 PM 1.8030 104.0960 182° South 258 297 5,700 -1,309 Descending FlightAware ADS-B
Fri 03:56:32 PM 1.7680 104.0940 183° South 253 291 5,100 -982 Descending FlightAware ADS-B
Fri 03:56:57 PM 1.7390 104.0930 182° South 239 275 4,800 -655 Descending FlightAware ADS-B
Fri 03:57:27 PM 1.7070 104.0910 184° South 233 268 4,500 -533 Descending FlightAware ADS-B
Fri 03:57:42 PM 1.6910 104.0910 180° South 231 266 4,400 -450 Descending FlightAware ADS-B
Fri 03:58:07 PM 1.6640 104.0900 182° South 214 246 4,200 -545 Descending FlightAware ADS-B
Fri 03:58:37 PM 1.6350 104.0880 184° South 209 241 3,900 -500 Descending FlightAware ADS-B
Fri 03:59:07 PM 1.6070 104.0860 184° South 194 223 3,700 -436 Descending FlightAware ADS-B
Fri 03:59:32 PM 1.5870 104.0780 202° Southwest 194 223 3,500 -450 Descending FlightAware ADS-B
Fri 03:59:47 PM 1.5740 104.0720 205° Southwest 192 221 3,400 -450 Descending FlightAware ADS-B
Fri 04:00:12 PM 1.5540 104.0640 202° Southwest 191 220 3,200 -327 Descending FlightAware ADS-B
Fri 04:00:42 PM 1.5300 104.0540 203° Southwest 190 219 3,100 -300 Descending FlightAware ADS-B
Fri 04:01:12 PM 1.5050 104.0430 204° Southwest 191 220 2,900 -764 Descending FlightAware ADS-B
Fri 04:01:37 PM 1.4850 104.0350 202° Southwest 181 208 2,400 -1,050 Descending FlightAware ADS-B
Fri 04:01:52 PM 1.4740 104.0300 204° Southwest 169 194 2,200 -800 Descending FlightAware ADS-B
Fri 04:02:22 PM 1.4530 104.0210 203° Southwest 159 183 1,800 -873 Descending FlightAware ADS-B
Fri 04:02:47 PM 1.4350 104.0140 201° Southwest 163 188 1,400 -873 Descending FlightAware ADS-B
Fri 04:03:17 PM 1.4140 104.0050 203° Southwest 169 194 1,000 -800 Descending FlightAware ADS-B
Fri 04:03:32 PM 1.4040 104.0000 207° Southwest 169 194 800 -933 Descending FlightAware ADS-B
Fri 04:04:02 PM 1.3810 103.9910 201° Southwest 169 194 300 -1,000 Descending FlightAware ADS-B
Fri 04:07:00 PM 1.3557 103.9875 59° Northeast  Level Estimated

Login

Don't have an account? Register now (free) for customized features, flight alerts, and more!